EKA46 PAOM-PASA

Flight info

Callsign EKA46
Flight time N/A
Altitude 18000
Route ZONBA
Aircraft C212/L-SDFGR/C

Departure

Time 2026-04-16 15:56
Airport Nome Airport (PAOM)

Arrival

Time N/A
Airport Savoonga Airport (PASA)
Time Latitude Longitude Altitude Speed Heading
2026-04-16 15:50 64.50780 -165.44175 42 ft 3 kts 84°
2026-04-16 15:50 64.50780 -165.44168 42 ft 0 kts 84°
2026-04-16 15:53 64.50780 -165.44167 42 ft 0 kts 84°
2026-04-16 15:54 64.50781 -165.44167 42 ft 0 kts 84°
2026-04-16 15:54 64.50848 -165.44028 43 ft 20 kts 21°
2026-04-16 15:54 64.50959 -165.43912 42 ft 13 kts 65°
2026-04-16 15:55 64.50938 -165.43685 42 ft 19 kts 112°
2026-04-16 15:55 64.50886 -165.43389 43 ft 10 kts 97°
2026-04-16 15:55 64.50917 -165.43437 43 ft 24 kts 289°
2026-04-16 15:55 64.51074 -165.44491 43 ft 100 kts 289°
2026-04-16 15:56 64.51309 -165.46095 238 ft 108 kts 289°
2026-04-16 15:56 64.51495 -165.47831 506 ft 118 kts 270°
2026-04-16 15:56 64.51116 -165.49569 750 ft 127 kts 232°
2026-04-16 15:56 64.50486 -165.51109 1011 ft 135 kts 228°
2026-04-16 15:57 64.49874 -165.52781 1270 ft 140 kts 234°
2026-04-16 15:57 64.49316 -165.54688 1533 ft 145 kts 239°
2026-04-16 15:57 64.48803 -165.56724 1818 ft 146 kts 244°
2026-04-16 15:57 64.48328 -165.58798 2136 ft 146 kts 247°
2026-04-16 15:58 64.47868 -165.60908 2459 ft 146 kts 248°
2026-04-16 15:58 64.47416 -165.63030 2783 ft 147 kts 249°
2026-04-16 15:58 64.46967 -165.65163 3107 ft 147 kts 249°
2026-04-16 15:58 64.46519 -165.67307 3433 ft 148 kts 249°
2026-04-16 15:59 64.45625 -165.71588 4081 ft 149 kts 249°
2026-04-16 15:59 64.45174 -165.73752 4406 ft 150 kts 249°
2026-04-16 15:59 64.44718 -165.75928 4731 ft 151 kts 249°
2026-04-16 16:00 64.44259 -165.78125 5059 ft 152 kts 249°
2026-04-16 16:00 64.43796 -165.80338 5387 ft 153 kts 249°
2026-04-16 16:00 64.43328 -165.82570 5714 ft 155 kts 249°
2026-04-16 16:00 64.42857 -165.84815 6040 ft 156 kts 249°
2026-04-16 16:01 64.42381 -165.87078 6368 ft 157 kts 249°
2026-04-16 16:01 64.42064 -165.88584 6583 ft 157 kts 249°
2026-04-16 16:01 64.41583 -165.90867 6913 ft 158 kts 249°
2026-04-16 16:01 64.41099 -165.93163 7238 ft 159 kts 249°
2026-04-16 16:02 64.40686 -165.95527 7564 ft 158 kts 257°
2026-04-16 16:02 64.40368 -165.97959 7892 ft 158 kts 259°
2026-04-16 16:02 64.40063 -166.00412 8219 ft 159 kts 259°
2026-04-16 16:02 64.39749 -166.02876 8545 ft 161 kts 259°
2026-04-16 16:03 64.39426 -166.05352 8871 ft 161 kts 259°
2026-04-16 16:03 64.39095 -166.07837 9197 ft 162 kts 259°
2026-04-16 16:03 64.38760 -166.10323 9524 ft 162 kts 259°
2026-04-16 16:03 64.38422 -166.12807 9850 ft 162 kts 259°
2026-04-16 16:04 64.38082 -166.15287 10176 ft 162 kts 259°
2026-04-16 16:04 64.37743 -166.17763 10502 ft 162 kts 259°
2026-04-16 16:04 64.37403 -166.20232 10827 ft 161 kts 259°
2026-04-16 16:04 64.37063 -166.22698 11154 ft 161 kts 260°
2026-04-16 16:05 64.36723 -166.25157 11479 ft 160 kts 260°
2026-04-16 16:05 64.36384 -166.27608 11791 ft 161 kts 260°
2026-04-16 16:05 64.36040 -166.30123 11951 ft 172 kts 260°
2026-04-16 16:05 64.35669 -166.32849 12011 ft 184 kts 260°
2026-04-16 16:06 64.35271 -166.35754 12026 ft 193 kts 259°
2026-04-16 16:06 64.34856 -166.38739 12070 ft 197 kts 259°
2026-04-16 16:06 64.34429 -166.41791 12085 ft 201 kts 258°
2026-04-16 16:06 64.33996 -166.44878 12087 ft 204 kts 258°
2026-04-16 16:07 64.33554 -166.48018 12088 ft 206 kts 258°
2026-04-16 16:07 64.33109 -166.51175 12086 ft 208 kts 258°
2026-04-16 16:07 64.32660 -166.54353 12087 ft 208 kts 258°
2026-04-16 16:07 64.32211 -166.57530 12087 ft 209 kts 258°
2026-04-16 16:08 64.31761 -166.60714 12088 ft 209 kts 258°
2026-04-16 16:08 64.31309 -166.63899 12088 ft 209 kts 258°
2026-04-16 16:08 64.30857 -166.67087 12088 ft 209 kts 258°
2026-04-16 16:08 64.30403 -166.70282 12089 ft 210 kts 258°
2026-04-16 16:09 64.29949 -166.73475 12090 ft 210 kts 258°
2026-04-16 16:09 64.29494 -166.76666 12090 ft 210 kts 258°
2026-04-16 16:09 64.29038 -166.79860 12091 ft 210 kts 258°
2026-04-16 16:09 64.28581 -166.83057 12091 ft 210 kts 258°
2026-04-16 16:10 64.28125 -166.86244 12092 ft 210 kts 258°
2026-04-16 16:10 64.27666 -166.89438 12092 ft 210 kts 258°
2026-04-16 16:10 64.27207 -166.92632 12092 ft 210 kts 258°
2026-04-16 16:10 64.26748 -166.95823 12093 ft 210 kts 258°
2026-04-16 16:11 64.26287 -166.99015 12094 ft 210 kts 258°
2026-04-16 16:11 64.25826 -167.02203 12095 ft 210 kts 258°
2026-04-16 16:11 64.25364 -167.05393 12095 ft 210 kts 258°
2026-04-16 16:11 64.24902 -167.08581 12096 ft 210 kts 258°
2026-04-16 16:12 64.24444 -167.11732 12096 ft 210 kts 257°
2026-04-16 16:12 64.23981 -167.14912 12097 ft 210 kts 257°
2026-04-16 16:12 64.23517 -167.18094 12098 ft 210 kts 257°
2026-04-16 16:12 64.23051 -167.21276 12094 ft 210 kts 258°
2026-04-16 16:13 64.22583 -167.24482 12025 ft 213 kts 258°
2026-04-16 16:13 64.22110 -167.27709 12004 ft 212 kts 258°
2026-04-16 16:13 64.21639 -167.30912 12002 ft 211 kts 257°
2026-04-16 16:13 64.21167 -167.34114 12002 ft 211 kts 257°
2026-04-16 16:14 64.20698 -167.37290 12003 ft 210 kts 257°
2026-04-16 16:14 64.20229 -167.40465 12003 ft 210 kts 257°
2026-04-16 16:14 64.19759 -167.43639 12004 ft 209 kts 257°
2026-04-16 16:14 64.19291 -167.46796 12005 ft 209 kts 258°
2026-04-16 16:15 64.18827 -167.49918 12002 ft 209 kts 258°
2026-04-16 16:15 64.18357 -167.53073 12001 ft 209 kts 258°
2026-04-16 16:15 64.17888 -167.56226 12001 ft 209 kts 258°
2026-04-16 16:15 64.17417 -167.59380 12001 ft 209 kts 258°
2026-04-16 16:16 64.16946 -167.62531 12001 ft 209 kts 258°
2026-04-16 16:16 64.16475 -167.65675 12001 ft 208 kts 257°
2026-04-16 16:16 64.16003 -167.68818 12002 ft 208 kts 257°
2026-04-16 16:16 64.15532 -167.71950 12002 ft 208 kts 257°
2026-04-16 16:17 64.15059 -167.75087 12003 ft 208 kts 258°
2026-04-16 16:17 64.14586 -167.78218 12004 ft 208 kts 258°
2026-04-16 16:17 64.14112 -167.81352 12005 ft 208 kts 258°
2026-04-16 16:17 64.13639 -167.84475 12006 ft 208 kts 258°
2026-04-16 16:18 64.13164 -167.87611 12006 ft 208 kts 258°
2026-04-16 16:18 64.12688 -167.90741 12007 ft 208 kts 258°
2026-04-16 16:18 64.12213 -167.93860 12004 ft 208 kts 257°
2026-04-16 16:18 64.11737 -167.96988 12001 ft 208 kts 257°
2026-04-16 16:19 64.11260 -168.00112 12003 ft 208 kts 258°
2026-04-16 16:19 64.10787 -168.03202 12000 ft 208 kts 257°
2026-04-16 16:19 64.10308 -168.06329 12000 ft 208 kts 257°
2026-04-16 16:19 64.09827 -168.09457 12002 ft 208 kts 257°
2026-04-16 16:20 64.09347 -168.12578 12003 ft 208 kts 257°
2026-04-16 16:20 64.08866 -168.15700 12002 ft 208 kts 257°
2026-04-16 16:20 64.08385 -168.18813 12001 ft 208 kts 257°
2026-04-16 16:20 64.07902 -168.21934 12000 ft 208 kts 257°
2026-04-16 16:21 64.07419 -168.25051 12000 ft 208 kts 257°
2026-04-16 16:21 64.06936 -168.28163 12000 ft 208 kts 257°
2026-04-16 16:21 64.06451 -168.31280 12000 ft 208 kts 257°
2026-04-16 16:21 64.05966 -168.34395 12000 ft 208 kts 257°
2026-04-16 16:22 64.05480 -168.37512 12001 ft 208 kts 257°
2026-04-16 16:22 64.04995 -168.40616 12001 ft 208 kts 257°
2026-04-16 16:22 64.04507 -168.43743 12000 ft 208 kts 257°
2026-04-16 16:22 64.04024 -168.46819 12000 ft 209 kts 257°
2026-04-16 16:23 64.03534 -168.49938 12000 ft 209 kts 257°
2026-04-16 16:23 64.03044 -168.53054 12000 ft 209 kts 257°
2026-04-16 16:23 64.02551 -168.56178 12000 ft 209 kts 257°
2026-04-16 16:23 64.02058 -168.59304 12000 ft 209 kts 257°
2026-04-16 16:24 64.01564 -168.62424 12000 ft 209 kts 257°
2026-04-16 16:24 64.01070 -168.65542 12001 ft 209 kts 257°
2026-04-16 16:24 64.00574 -168.68665 12000 ft 210 kts 257°
2026-04-16 16:24 64.00078 -168.71788 12001 ft 210 kts 257°
2026-04-16 16:25 63.99581 -168.74911 12001 ft 209 kts 256°
2026-04-16 16:25 63.99085 -168.78023 12002 ft 209 kts 256°
2026-04-16 16:25 63.98588 -168.81130 12007 ft 208 kts 256°
2026-04-16 16:25 63.98092 -168.84231 12009 ft 208 kts 256°
2026-04-16 16:26 63.97594 -168.87332 12009 ft 208 kts 256°
2026-04-16 16:26 63.97098 -168.90425 12010 ft 208 kts 256°
2026-04-16 16:26 63.96598 -168.93530 12010 ft 208 kts 256°
2026-04-16 16:26 63.96098 -168.96636 12010 ft 209 kts 256°
2026-04-16 16:27 63.95596 -168.99748 11928 ft 213 kts 256°
2026-04-16 16:27 63.95092 -169.02875 11738 ft 206 kts 256°
2026-04-16 16:27 63.94608 -169.05816 11542 ft 192 kts 256°
2026-04-16 16:27 63.94155 -169.08569 11359 ft 180 kts 257°
2026-04-16 16:28 63.93727 -169.11181 11178 ft 172 kts 257°
2026-04-16 16:28 63.93317 -169.13704 10992 ft 174 kts 257°
2026-04-16 16:28 63.92887 -169.16425 10802 ft 190 kts 257°
2026-04-16 16:28 63.92425 -169.19322 10608 ft 199 kts 256°
2026-04-16 16:29 63.91939 -169.22327 10411 ft 205 kts 256°
2026-04-16 16:29 63.91438 -169.25394 10212 ft 208 kts 256°
2026-04-16 16:29 63.90925 -169.28512 10011 ft 211 kts 255°
2026-04-16 16:29 63.90409 -169.31648 9812 ft 212 kts 255°
2026-04-16 16:30 63.89889 -169.34806 9612 ft 216 kts 255°
2026-04-16 16:30 63.89358 -169.38024 9413 ft 219 kts 255°
2026-04-16 16:30 63.88818 -169.41290 9213 ft 221 kts 255°
2026-04-16 16:30 63.88282 -169.44529 9016 ft 223 kts 255°
2026-04-16 16:31 63.87733 -169.47834 8816 ft 224 kts 255°
2026-04-16 16:31 63.87181 -169.51156 8616 ft 227 kts 255°
2026-04-16 16:31 63.86620 -169.54536 8417 ft 230 kts 254°
2026-04-16 16:31 63.86051 -169.57955 8217 ft 232 kts 254°
2026-04-16 16:32 63.85479 -169.61387 8018 ft 233 kts 254°
2026-04-16 16:32 63.84903 -169.64831 7817 ft 233 kts 254°
2026-04-16 16:32 63.84327 -169.68263 7618 ft 233 kts 254°
2026-04-16 16:32 63.83749 -169.71697 7417 ft 233 kts 254°
2026-04-16 16:33 63.83171 -169.75126 7217 ft 232 kts 254°
2026-04-16 16:33 63.82595 -169.78543 7017 ft 232 kts 254°
2026-04-16 16:33 63.82021 -169.81941 6817 ft 231 kts 254°
2026-04-16 16:33 63.81445 -169.85350 6616 ft 231 kts 254°
2026-04-16 16:34 63.80871 -169.88735 6416 ft 230 kts 254°